createdAt,value
2019-05-22T00:01:13.279Z,32.93
2019-05-22T00:03:47.193Z,32.55
2019-05-22T00:06:18.491Z,32.55
2019-05-22T00:08:49.945Z,32.60
2019-05-22T00:11:21.706Z,30.35
2019-05-22T00:13:51.513Z,30.12
2019-05-22T00:16:22.115Z,29.75
2019-05-22T00:18:52.478Z,29.12
2019-05-22T00:21:22.595Z,28.47
2019-05-22T00:23:52.473Z,29.77
2019-05-22T00:26:23.390Z,28.60
2019-05-22T00:28:53.988Z,30.00
2019-05-22T00:31:23.329Z,28.73
2019-05-22T00:33:55.439Z,29.90
2019-05-22T00:36:24.852Z,29.12
2019-05-22T00:38:55.827Z,29.90
2019-05-22T00:41:26.884Z,29.70
2019-05-22T00:43:56.296Z,29.42
2019-05-22T00:46:25.911Z,28.85
2019-05-22T00:48:55.313Z,29.65
2019-05-22T00:51:30.943Z,29.72
2019-05-22T00:54:03.492Z,30.15
2019-05-22T00:56:34.483Z,30.60
2019-05-22T00:59:11.081Z,30.60
2019-05-22T01:01:45.434Z,30.25
2019-05-22T01:04:16.418Z,31.55
2019-05-22T01:06:47.667Z,30.97
2019-05-22T01:09:34.319Z,30.88
2019-05-22T01:12:03.998Z,30.57
2019-05-22T01:14:42.985Z,29.52
2019-05-22T01:17:08.111Z,29.77
2019-05-22T01:19:39.096Z,29.48
2019-05-22T01:22:10.259Z,29.25
2019-05-22T01:24:41.566Z,27.55
2019-05-22T01:27:12.676Z,27.77
2019-05-22T01:29:43.981Z,29.15
2019-05-22T01:32:16.125Z,27.73
2019-05-22T01:34:45.741Z,28.87
2019-05-22T01:37:15.951Z,27.93
2019-05-22T01:39:55.836Z,26.07
2019-05-22T01:42:30.342Z,27.05
2019-05-22T01:45:06.209Z,27.50
2019-05-22T01:47:49.049Z,25.68
2019-05-22T01:50:29.020Z,26.57
2019-05-22T01:52:58.444Z,27.15
2019-05-22T01:55:27.782Z,21.95
2019-05-22T01:57:58.165Z,21.12
2019-05-22T02:00:28.121Z,18.70
2019-05-22T02:02:58.085Z,17.45
2019-05-22T02:05:28.487Z,16.40
2019-05-22T02:07:59.223Z,15.95
2019-05-22T02:10:38.338Z,15.15
2019-05-22T02:13:11.202Z,15.13
2019-05-22T02:15:41.521Z,16.57
2019-05-22T02:18:17.913Z,15.65
2019-05-22T02:20:48.138Z,16.07
2019-05-22T02:23:17.952Z,13.78
2019-05-22T02:25:47.666Z,13.30
2019-05-22T02:28:18.506Z,12.95
2019-05-22T02:30:48.496Z,11.60
2019-05-22T02:33:22.146Z,12.13
2019-05-22T02:38:21.169Z,11.30
2019-05-22T02:40:53.185Z,12.07
2019-05-22T02:43:24.550Z,12.53
2019-05-22T02:45:53.891Z,11.25
2019-05-22T02:48:25.671Z,10.48
2019-05-22T02:50:57.015Z,10.78
2019-05-22T02:53:27.624Z,11.05
2019-05-22T02:55:57.430Z,11.57
2019-05-22T02:58:28.795Z,10.95
2019-05-22T03:01:02.544Z,11.08
2019-05-22T03:03:33.578Z,9.83
2019-05-22T03:06:05.642Z,9.75
2019-05-22T03:08:58.197Z,10.38
2019-05-22T03:11:37.380Z,10.98
2019-05-22T03:14:09.193Z,10.10
2019-05-22T03:16:57.926Z,10.20
2019-05-22T03:19:43.779Z,11.25
2019-05-22T03:22:34.592Z,10.10
2019-05-22T03:25:08.090Z,10.55
2019-05-22T03:27:39.953Z,11.00
2019-05-22T03:30:21.296Z,10.85
2019-05-22T03:32:52.102Z,10.65
2019-05-22T03:35:24.628Z,10.68
2019-05-22T03:37:56.476Z,11.28
2019-05-22T03:40:28.751Z,10.43
2019-05-22T03:42:59.765Z,9.53
2019-05-22T03:45:31.048Z,10.08
2019-05-22T03:48:03.767Z,9.83
2019-05-22T03:50:33.484Z,10.80
2019-05-22T03:53:08.499Z,10.68
2019-05-22T03:55:38.119Z,10.10
2019-05-22T03:58:07.458Z,10.63
2019-05-22T04:00:42.926Z,10.80
2019-05-22T04:03:09.811Z,11.28
2019-05-22T04:05:39.240Z,10.78
2019-05-22T04:08:10.883Z,12.70
2019-05-22T04:11:02.615Z,12.28
2019-05-22T04:13:33.177Z,13.58
2019-05-22T04:16:05.603Z,16.10
2019-05-22T04:18:35.833Z,15.53
2019-05-22T04:21:05.815Z,14.95
2019-05-22T04:23:35.939Z,15.72
2019-05-22T04:26:08.960Z,16.95
2019-05-22T04:28:41.339Z,16.60
2019-05-22T04:31:10.750Z,18.55
2019-05-22T04:33:40.082Z,16.70
2019-05-22T04:36:10.497Z,17.50
2019-05-22T04:38:40.950Z,17.85
2019-05-22T04:41:10.378Z,17.10
2019-05-22T04:43:40.085Z,17.95
2019-05-22T04:46:11.512Z,17.27
2019-05-22T04:48:45.809Z,17.65
2019-05-22T04:51:26.313Z,17.23
2019-05-22T04:53:57.551Z,16.10
2019-05-22T04:56:28.201Z,16.80
2019-05-22T04:58:58.580Z,16.12
2019-05-22T05:01:28.393Z,15.78
2019-05-22T05:03:58.837Z,16.15
2019-05-22T05:06:29.807Z,15.65
2019-05-22T05:08:59.486Z,15.85
2019-05-22T05:11:28.961Z,17.05
2019-05-22T05:13:58.367Z,16.82
2019-05-22T05:16:27.761Z,16.20
2019-05-22T05:18:57.163Z,16.10
2019-05-22T05:21:26.903Z,16.57
2019-05-22T05:23:56.595Z,16.50
2019-05-22T05:26:26.748Z,16.93
2019-05-22T05:28:56.222Z,16.82
2019-05-22T05:31:25.643Z,17.50
2019-05-22T05:34:13.060Z,18.07
2019-05-22T05:36:42.797Z,16.37
2019-05-22T05:39:37.702Z,16.75
2019-05-22T05:42:07.107Z,16.10
2019-05-22T05:44:36.526Z,16.87
2019-05-22T05:47:07.381Z,17.50
2019-05-22T05:49:36.714Z,17.55
2019-05-22T05:52:09.120Z,16.97
2019-05-22T05:54:39.474Z,16.77
2019-05-22T05:57:35.502Z,16.42
2019-05-22T06:00:09.191Z,16.52
2019-05-22T06:05:09.576Z,17.10
2019-05-22T06:07:39.394Z,17.25
2019-05-22T06:10:20.499Z,17.00
2019-05-22T06:12:50.494Z,16.65
2019-05-22T06:15:20.559Z,18.70
2019-05-22T06:18:27.741Z,18.70
2019-05-22T06:21:03.747Z,18.57
2019-05-22T06:23:32.616Z,17.82
2019-05-22T06:26:04.779Z,17.98
2019-05-22T06:28:38.345Z,16.23
2019-05-22T06:31:11.193Z,17.57
2019-05-22T06:33:40.536Z,18.52
2019-05-22T06:36:12.876Z,15.32
2019-05-22T06:38:59.682Z,13.28
2019-05-22T06:41:32.861Z,12.20
2019-05-22T06:44:30.243Z,13.48
2019-05-22T06:47:00.647Z,14.15
2019-05-22T06:49:36.268Z,14.15
2019-05-22T06:52:09.476Z,13.35
2019-05-22T06:54:39.320Z,11.30
2019-05-22T06:57:12.263Z,12.28
2019-05-22T06:59:43.436Z,12.30
2019-05-22T07:02:14.812Z,12.55
2019-05-22T07:04:44.859Z,12.13
2019-05-22T07:07:15.897Z,11.22
2019-05-22T07:09:46.345Z,11.75
2019-05-22T07:12:19.988Z,10.85
2019-05-22T07:17:22.150Z,10.32
2019-05-22T07:19:52.045Z,10.45
2019-05-22T07:22:22.021Z,9.50
2019-05-22T07:24:51.620Z,10.38
2019-05-22T07:27:26.849Z,10.08
2019-05-22T07:29:57.056Z,9.73
2019-05-22T07:32:30.532Z,8.63
2019-05-22T07:34:57.654Z,8.55
2019-05-22T07:37:26.991Z,8.33
2019-05-22T07:39:56.457Z,7.97
2019-05-22T07:42:26.117Z,8.33
2019-05-22T07:44:55.454Z,8.35
2019-05-22T07:47:26.127Z,8.58
2019-05-22T07:49:55.691Z,7.83
2019-05-22T07:52:25.551Z,8.20
2019-05-22T07:54:55.592Z,7.78
2019-05-22T07:57:27.106Z,8.75
2019-05-22T07:59:56.714Z,8.05
2019-05-22T08:02:29.778Z,8.68
2019-05-22T08:05:01.231Z,7.62
2019-05-22T08:07:35.002Z,7.92
2019-05-22T08:10:07.809Z,7.93
2019-05-22T08:12:38.163Z,8.25
2019-05-22T08:15:08.841Z,8.10
2019-05-22T08:17:38.356Z,8.05
2019-05-22T08:20:07.765Z,8.08
2019-05-22T08:22:38.940Z,7.65
2019-05-22T08:25:09.250Z,7.28
2019-05-22T08:27:39.328Z,7.53
2019-05-22T08:30:10.014Z,8.45
2019-05-22T08:32:40.387Z,9.18
2019-05-22T08:35:11.751Z,9.75
2019-05-22T08:37:42.935Z,9.53
2019-05-22T08:40:16.303Z,9.00
2019-05-22T08:42:46.397Z,9.95
2019-05-22T08:45:18.673Z,10.25
2019-05-22T08:47:48.195Z,9.23
2019-05-22T08:50:20.010Z,8.63
2019-05-22T08:52:49.513Z,9.25
2019-05-22T08:55:18.925Z,9.25
2019-05-22T08:57:48.361Z,9.28
2019-05-22T09:00:19.865Z,9.15
2019-05-22T09:02:50.922Z,8.65
2019-05-22T09:05:21.794Z,7.75
2019-05-22T09:07:51.916Z,7.83
2019-05-22T09:10:25.793Z,7.78
2019-05-22T09:12:53.305Z,6.92
2019-05-22T09:15:23.602Z,8.68
2019-05-22T09:17:53.477Z,8.65
2019-05-22T09:20:23.083Z,8.80
2019-05-22T09:22:52.859Z,9.03
2019-05-22T09:25:22.194Z,8.50
2019-05-22T09:27:51.872Z,8.35
2019-05-22T09:30:21.709Z,7.95
2019-05-22T09:32:51.364Z,8.03
2019-05-22T09:35:21.279Z,7.12
2019-05-22T09:37:50.994Z,6.90
2019-05-22T09:40:20.851Z,7.05
2019-05-22T09:42:50.263Z,6.40
2019-05-22T09:45:20.209Z,7.05
2019-05-22T09:47:49.685Z,7.35
2019-05-22T09:50:19.582Z,8.05
2019-05-22T09:52:57.589Z,7.62
2019-05-22T09:55:20.808Z,7.10
2019-05-22T09:57:50.213Z,7.47
2019-05-22T10:00:20.560Z,7.22
2019-05-22T10:02:50.022Z,7.28
2019-05-22T10:05:19.895Z,7.08
2019-05-22T10:08:00.411Z,7.53
2019-05-22T10:10:21.112Z,6.92
2019-05-22T10:12:50.799Z,7.60
2019-05-22T10:15:21.268Z,6.92
2019-05-22T10:17:50.842Z,6.42
2019-05-22T10:20:20.914Z,6.97
2019-05-22T10:22:50.313Z,6.67
2019-05-22T10:25:20.082Z,7.83
2019-05-22T10:27:49.957Z,8.70
2019-05-22T10:30:22.644Z,7.92
2019-05-22T10:32:51.990Z,7.67
2019-05-22T10:35:27.015Z,7.37
2019-05-22T10:37:57.167Z,7.05
2019-05-22T10:40:27.022Z,6.92
2019-05-22T10:42:57.395Z,7.30
2019-05-22T10:45:27.530Z,7.33
2019-05-22T10:47:57.442Z,7.37
2019-05-22T10:50:27.623Z,7.05
2019-05-22T10:52:57.422Z,6.95
2019-05-22T10:55:28.278Z,8.10
2019-05-22T10:57:58.215Z,8.03
2019-05-22T11:00:27.626Z,9.38
2019-05-22T11:02:57.877Z,9.13
2019-05-22T11:05:27.448Z,9.25
2019-05-22T11:07:59.138Z,9.28
2019-05-22T11:10:29.108Z,8.45
2019-05-22T11:12:59.201Z,7.60
2019-05-22T11:15:28.944Z,8.33
2019-05-22T11:17:58.594Z,7.25
2019-05-22T11:20:28.699Z,8.13
2019-05-22T11:22:58.046Z,7.85
2019-05-22T11:25:27.644Z,8.10
2019-05-22T11:27:56.984Z,8.03
2019-05-22T11:30:27.051Z,9.00
2019-05-22T11:32:56.850Z,7.72
2019-05-22T11:35:27.429Z,8.48
2019-05-22T11:37:56.939Z,7.37
2019-05-22T11:40:26.876Z,6.55
2019-05-22T11:42:57.629Z,7.37
2019-05-22T11:45:28.174Z,7.90
2019-05-22T11:47:57.509Z,8.90
2019-05-22T11:50:27.692Z,9.43
2019-05-22T11:52:57.111Z,9.30
2019-05-22T11:55:42.618Z,9.20
2019-05-22T11:57:57.657Z,8.83
2019-05-22T12:00:27.690Z,8.05
2019-05-22T12:02:57.583Z,7.67
2019-05-22T12:05:26.906Z,5.72
2019-05-22T12:07:56.799Z,7.83
2019-05-22T12:10:26.586Z,6.33
2019-05-22T12:12:55.988Z,5.78
2019-05-22T12:15:28.132Z,5.72
2019-05-22T12:17:57.860Z,6.72
2019-05-22T12:20:29.240Z,5.85
2019-05-22T12:22:58.778Z,4.87
2019-05-22T12:25:29.125Z,4.70
2019-05-22T12:27:58.467Z,5.80
2019-05-22T12:30:28.429Z,6.10
2019-05-22T12:32:59.202Z,5.65
2019-05-22T12:35:29.104Z,5.25
2019-05-22T12:38:00.196Z,5.22
2019-05-22T12:40:33.750Z,4.78
2019-05-22T12:45:33.409Z,5.05
2019-05-22T12:48:04.078Z,5.30
2019-05-22T12:50:34.554Z,5.20
2019-05-22T12:53:06.767Z,6.67
2019-05-22T12:55:36.668Z,6.22
2019-05-22T12:58:06.725Z,4.25
2019-05-22T13:00:36.390Z,5.30
2019-05-22T13:03:07.433Z,6.17
2019-05-22T13:05:39.425Z,6.22
2019-05-22T13:08:09.359Z,5.58
2019-05-22T13:10:39.398Z,5.97
2019-05-22T13:13:08.897Z,5.70
2019-05-22T13:15:39.381Z,7.00
2019-05-22T13:18:10.631Z,6.50
2019-05-22T13:20:44.977Z,5.62
2019-05-22T13:23:17.567Z,6.12
2019-05-22T13:25:47.263Z,5.30
2019-05-22T13:28:18.942Z,5.53
2019-05-22T13:30:52.691Z,6.75
2019-05-22T13:33:26.576Z,5.12
2019-05-22T13:35:57.735Z,6.10
2019-05-22T13:38:28.734Z,5.58
2019-05-22T13:40:58.573Z,4.97
2019-05-22T13:43:28.830Z,4.45
2019-05-22T13:45:59.276Z,6.35
2019-05-22T13:48:30.215Z,4.33
2019-05-22T13:51:00.397Z,4.67
2019-05-22T13:53:31.929Z,4.47
2019-05-22T13:56:01.410Z,5.37
2019-05-22T13:58:30.857Z,5.53
2019-05-22T14:01:00.659Z,4.50
2019-05-22T14:03:30.591Z,5.12
2019-05-22T14:06:00.354Z,3.83
2019-05-22T14:08:29.919Z,4.08
2019-05-22T14:11:00.374Z,4.05
2019-05-22T14:13:30.853Z,3.50
2019-05-22T14:16:00.263Z,5.00
2019-05-22T14:18:29.885Z,4.08
2019-05-22T14:20:59.496Z,3.67
2019-05-22T14:23:29.963Z,4.67
2019-05-22T14:25:59.500Z,4.17
2019-05-22T14:28:30.850Z,4.87
2019-05-22T14:31:00.549Z,5.00
2019-05-22T14:33:30.282Z,4.80
2019-05-22T14:36:00.967Z,5.03
2019-05-22T14:38:30.292Z,5.22
2019-05-22T14:41:00.578Z,3.52
2019-05-22T14:43:30.097Z,4.50
2019-05-22T14:45:59.449Z,5.28
2019-05-22T14:48:29.148Z,3.80
2019-05-22T14:50:59.477Z,5.35
2019-05-22T14:53:29.723Z,3.92
2019-05-22T14:56:01.439Z,4.78
2019-05-22T14:58:31.622Z,4.90
2019-05-22T15:01:01.019Z,4.35
2019-05-22T15:03:30.892Z,4.28
2019-05-22T15:06:00.489Z,4.45
2019-05-22T15:08:29.964Z,4.95
2019-05-22T15:10:59.775Z,6.08
2019-05-22T15:13:29.530Z,5.35
2019-05-22T15:15:58.880Z,5.70
2019-05-22T15:18:28.943Z,5.37
2019-05-22T15:21:09.448Z,5.25
2019-05-22T15:23:39.542Z,4.47
2019-05-22T15:26:09.672Z,4.70
2019-05-22T15:28:40.209Z,4.62
2019-05-22T15:31:09.703Z,4.65
2019-05-22T15:33:40.668Z,5.75
2019-05-22T15:36:13.644Z,5.12
2019-05-22T15:38:44.884Z,5.33
2019-05-22T15:41:14.482Z,5.47
2019-05-22T15:43:50.391Z,5.20
2019-05-22T15:46:18.577Z,4.87
2019-05-22T15:48:48.832Z,4.42
2019-05-22T15:51:21.240Z,5.10
2019-05-22T15:53:52.078Z,5.47
2019-05-22T15:56:21.876Z,5.47
2019-05-22T15:58:54.661Z,5.28
2019-05-22T16:01:25.603Z,4.90
2019-05-22T16:03:56.767Z,5.83
2019-05-22T16:06:29.515Z,6.08
2019-05-22T16:08:59.682Z,5.55
2019-05-22T16:11:31.627Z,5.08
2019-05-22T16:14:03.306Z,4.87
2019-05-22T16:16:34.620Z,4.92
2019-05-22T16:19:07.555Z,5.90
2019-05-22T16:21:40.208Z,6.85
2019-05-22T16:24:10.574Z,6.42
2019-05-22T16:26:41.106Z,6.22
2019-05-22T16:29:10.882Z,5.58
2019-05-22T16:31:42.731Z,6.37
2019-05-22T16:34:12.492Z,6.50
2019-05-22T16:36:44.894Z,5.80
2019-05-22T16:39:15.535Z,5.60
2019-05-22T16:41:46.182Z,6.00
2019-05-22T16:44:16.450Z,6.58
2019-05-22T16:46:48.564Z,6.20
2019-05-22T16:49:17.962Z,6.00
2019-05-22T16:51:48.540Z,5.85
2019-05-22T16:54:20.887Z,5.80
2019-05-22T16:56:50.326Z,5.40
2019-05-22T16:59:20.170Z,5.75
2019-05-22T17:01:59.859Z,6.30
2019-05-22T17:04:21.179Z,7.55
2019-05-22T17:06:51.554Z,7.62
2019-05-22T17:09:21.757Z,6.12
2019-05-22T17:11:52.513Z,6.28
2019-05-22T17:14:23.891Z,8.53
2019-05-22T17:16:53.572Z,8.48
2019-05-22T17:19:27.516Z,6.55
2019-05-22T17:21:55.140Z,15.65
2019-05-22T17:24:24.941Z,9.33
2019-05-22T17:26:56.018Z,7.72
2019-05-22T17:29:26.379Z,5.97
2019-05-22T17:31:56.265Z,6.60
2019-05-22T17:34:31.832Z,5.83
2019-05-22T17:37:06.233Z,6.22
2019-05-22T17:39:38.171Z,5.85
2019-05-22T17:42:10.518Z,5.60
2019-05-22T17:44:43.192Z,5.83
2019-05-22T17:47:13.525Z,5.42
2019-05-22T17:49:43.321Z,5.37
2019-05-22T17:52:14.572Z,4.67
2019-05-22T17:54:45.146Z,5.05
2019-05-22T17:57:15.313Z,5.62
2019-05-22T17:59:44.656Z,5.35
2019-05-22T18:02:16.138Z,5.72
2019-05-22T18:04:45.801Z,5.65
2019-05-22T18:07:15.498Z,5.22
2019-05-22T18:09:45.078Z,5.00
2019-05-22T18:12:15.007Z,4.47
2019-05-22T18:14:45.317Z,4.83
2019-05-22T18:17:15.385Z,5.83
2019-05-22T18:19:44.981Z,5.25
2019-05-22T18:22:16.317Z,4.70
2019-05-22T18:24:46.426Z,4.53
2019-05-22T18:27:15.763Z,5.05
2019-05-22T18:29:45.093Z,5.75
2019-05-22T18:32:14.424Z,4.97
2019-05-22T18:34:43.783Z,5.53
2019-05-22T18:37:13.184Z,5.45
2019-05-22T18:39:42.512Z,5.00
2019-05-22T18:42:12.588Z,4.75
2019-05-22T18:44:41.919Z,5.03
2019-05-22T18:47:11.824Z,4.87
2019-05-22T18:49:41.223Z,4.75
2019-05-22T18:52:11.324Z,4.15
2019-05-22T18:54:40.719Z,4.42
2019-05-22T18:57:10.735Z,4.45
2019-05-22T18:59:40.341Z,4.42
2019-05-22T19:02:09.672Z,4.90
2019-05-22T19:04:40.278Z,4.50
2019-05-22T19:07:10.063Z,5.53
2019-05-22T19:09:39.572Z,5.45
2019-05-22T19:12:09.048Z,5.80
2019-05-22T19:14:38.368Z,5.90
2019-05-22T19:17:08.122Z,5.08
2019-05-22T19:19:38.391Z,6.47
2019-05-22T19:22:07.966Z,6.10
2019-05-22T19:24:37.434Z,6.60
2019-05-22T19:27:06.850Z,6.37
2019-05-22T19:29:36.285Z,6.00
2019-05-22T19:32:06.047Z,6.00
2019-05-22T19:34:35.379Z,6.75
2019-05-22T19:37:04.779Z,6.35
2019-05-22T19:39:34.883Z,6.53
2019-05-22T19:42:05.754Z,6.70
2019-05-22T19:44:35.513Z,7.17
2019-05-22T19:47:06.791Z,7.35
2019-05-22T19:49:36.117Z,7.67
2019-05-22T19:52:07.665Z,8.43
2019-05-22T19:54:38.340Z,7.80
2019-05-22T19:57:09.014Z,8.33
2019-05-22T19:59:38.357Z,8.20
2019-05-22T20:02:09.714Z,8.45
2019-05-22T20:04:39.115Z,8.48
2019-05-22T20:07:09.404Z,8.38
2019-05-22T20:09:39.383Z,8.33
2019-05-22T20:12:11.770Z,9.20
2019-05-22T20:14:41.111Z,8.58
2019-05-22T20:17:10.715Z,9.15
2019-05-22T20:19:40.564Z,9.10
2019-05-22T20:22:10.237Z,9.48
2019-05-22T20:24:39.638Z,9.58
2019-05-22T20:27:10.230Z,9.93
2019-05-22T20:29:41.187Z,9.40
2019-05-22T20:32:13.926Z,10.35
2019-05-22T20:34:43.711Z,10.50
2019-05-22T20:37:13.216Z,10.03
2019-05-22T20:39:42.563Z,11.33
2019-05-22T20:42:12.084Z,11.08
2019-05-22T20:44:42.330Z,12.10
2019-05-22T20:47:11.740Z,12.78
2019-05-22T20:49:43.360Z,11.95
2019-05-22T20:52:14.315Z,13.43
2019-05-22T20:54:44.997Z,13.83
2019-05-22T20:57:19.575Z,15.40
2019-05-22T20:59:47.685Z,15.72
2019-05-22T21:02:19.736Z,17.23
2019-05-22T21:04:51.413Z,16.85
2019-05-22T21:07:26.527Z,18.45
2019-05-22T21:09:57.372Z,18.40
2019-05-22T21:12:27.345Z,18.17
2019-05-22T21:14:57.342Z,19.07
2019-05-22T21:17:28.488Z,19.17
2019-05-22T21:19:59.589Z,18.77
2019-05-22T21:22:29.410Z,18.25
2019-05-22T21:24:59.774Z,19.10
2019-05-22T21:27:30.414Z,18.60
2019-05-22T21:29:59.828Z,19.67
2019-05-22T21:32:29.869Z,18.90
2019-05-22T21:34:59.591Z,19.42
2019-05-22T21:37:29.314Z,19.15
2019-05-22T21:39:59.206Z,20.12
2019-05-22T21:42:30.267Z,20.02
2019-05-22T21:44:59.974Z,19.77
2019-05-22T21:47:29.586Z,19.37
2019-05-22T21:49:59.007Z,21.20
2019-05-22T21:52:28.495Z,21.90
2019-05-22T21:54:58.875Z,21.12
2019-05-22T21:57:28.559Z,21.42
2019-05-22T21:59:57.899Z,21.55
2019-05-22T22:02:31.929Z,22.27
2019-05-22T22:05:01.333Z,22.35
2019-05-22T22:07:30.741Z,20.82
2019-05-22T22:10:00.416Z,21.73
2019-05-22T22:12:30.020Z,22.35
2019-05-22T22:14:59.929Z,20.45
2019-05-22T22:17:30.619Z,21.68
2019-05-22T22:20:01.289Z,22.62
2019-05-22T22:22:31.355Z,20.40
2019-05-22T22:25:01.624Z,20.77
2019-05-22T22:27:31.388Z,20.80
2019-05-22T22:30:02.623Z,19.27
2019-05-22T22:32:33.312Z,19.85
2019-05-22T22:35:02.921Z,20.05
2019-05-22T22:37:32.637Z,19.32
2019-05-22T22:40:02.520Z,20.55
2019-05-22T22:42:36.834Z,19.50
2019-05-22T22:45:08.849Z,19.30
2019-05-22T22:50:09.947Z,18.85
2019-05-22T22:52:40.635Z,19.48
2019-05-22T22:55:13.052Z,19.82
2019-05-22T22:57:42.652Z,19.42
2019-05-22T23:00:15.599Z,19.60
2019-05-22T23:02:46.361Z,18.73
2019-05-22T23:05:16.839Z,19.45
2019-05-22T23:07:48.593Z,18.52
2019-05-22T23:10:20.182Z,19.37
2019-05-22T23:12:51.044Z,18.75
2019-05-22T23:15:21.710Z,18.85
2019-05-22T23:17:53.041Z,19.02
2019-05-22T23:20:21.459Z,18.12
2019-05-22T23:22:49.680Z,19.42
2019-05-22T23:25:19.933Z,18.57
2019-05-22T23:27:50.849Z,19.35
2019-05-22T23:30:21.021Z,19.55
2019-05-22T23:32:52.539Z,18.92
2019-05-22T23:35:22.788Z,18.62
2019-05-22T23:37:52.393Z,19.12
2019-05-22T23:40:31.016Z,19.40
2019-05-22T23:43:01.881Z,20.00
2019-05-22T23:45:31.284Z,20.20
2019-05-22T23:48:05.308Z,20.37
2019-05-22T23:50:38.009Z,19.57
2019-05-22T23:53:08.738Z,20.83
2019-05-22T23:55:40.763Z,20.48
2019-05-22T23:58:12.223Z,20.50
